Nearby METAR Reports

 

EGNM - Leeds And Bradford, United Kingdom
Distance from station: N 11mi, 18km
Updated: 23/07/2018 10:20
Few Clouds
Few Clouds
 Wind from SW
Wind: SW 5 mph , 7 km/h
Temperature: 22°C
Dew Point: 16°C
Humidity: 69%
Barometer: 1016 hPa
Clouds: Few Clouds
Visibility: 6 miles , 10 km
Cloud details: Few Clouds 884 m
2018/07/23 09:20 EGNM 230920Z 23004KT 180V280 9999 FEW029 22/16 Q1016
EGXG - Church Fenton, United Kingdom
Distance from station: ENE 19mi, 31km
Updated: 19/12/2013 08:50
NOT Current
Clear
Clear
 Wind from SW
Wind: SW 16 mph , 26 km/h
Temperature: 4°C
Wind Chill: -1°C
Dew Point: -1°C
Humidity: 70%
Barometer: 996 hPa
Clouds: Clear
Visibility: 6 miles , 10 km
2013/12/19 08:50 EGXG 190850Z AUTO 23014KT 9999 NCD 04/M01 Q0996
 
EGXU - Linton-On-Ouse, United Kingdom
Distance from station: NNE 28mi, 45km
Updated: 23/07/2018 09:50
Mostly cloudy
Mostly cloudy
 Wind from WNW
Wind: WNW 9 mph , 15 km/h
Temperature: 23°C
Dew Point: 17°C
Humidity: 69%
Barometer: 1015 hPa
Clouds: Mostly cloudy
Visibility: 6 miles , 10 km
Cloud details: Few Clouds 732 m
Mostly cloudy 2134 m
2018/07/23 08:50 EGXU 230850Z 29008KT 9999 FEW024 BKN070 23/17 Q1015 BLU NOSIG
EGCN - Doncaster Sheffield, United Kingdom
Distance from station: ESE 30mi, 45km
Updated: 23/07/2018 10:20
Few Clouds
Few Clouds
 Wind from WSW
Wind: WSW 6 mph , 9 km/h
Temperature: 26°C
Dew Point: 18°C
Humidity: 61%
Barometer: 1016 hPa
Clouds: Few Clouds
Visibility: 6 miles , 10 km
Cloud details: Few Clouds 1067 m
2018/07/23 09:20 EGCN 230920Z 24005KT 150V300 9999 FEW035 26/18 Q1016
 
EGXD - Dishforth RAF, United Kingdom
Distance from station: NNE 31mi, 49km
Updated: 06/06/2016 10:50
NOT Current
Clear
Clear
 Wind from SSE
Wind: SSE 5 mph , 7 km/h
Temperature: 18°C
Dew Point: 11°C
Humidity: 64%
Barometer: 1023 hPa
Clouds: Clear
Visibility: 6 miles , 10 km
2016/06/06 09:50 EGXD 060950Z AUTO 16004KT 9999 // NCD 18/11 Q1023
EGXZ - Topcliffe RAF, United Kingdom
Distance from station: NNE 36mi, 57km
Updated: 23/07/2018 09:50
Clear
Clear
 Wind from S
Wind: S 8 mph , 13 km/h
Temperature: 21°C
Dew Point: 17°C
Humidity: 78%
Barometer: 1015 hPa
Summary: Clear
Visibility: greater than 7 miles , 10 km
2018/07/23 08:50 EGXZ 230850Z 19007KT CAVOK 21/17 Q1015 BLU
 
EGCC - Manchester Intl, United Kingdom
Distance from station: SW 36mi, 58km
Updated: 23/07/2018 10:20
Clear
Clear
 Wind from varies
Wind: varies 2 mph , 4 km/h
Temperature: 22°C
Dew Point: 17°C
Humidity: 73%
Barometer: 1016 hPa
Clouds: Clear
Visibility: 6 miles , 10 km
2018/07/23 09:20 EGCC 230920Z AUTO VRB02KT 9999 NCD 22/17 Q1016 NOSIG
EGXE - Leeming RAF, United Kingdom
Distance from station: N 40mi, 65km
Updated: 23/07/2018 09:50
Mostly cloudy
Mostly cloudy
 Wind from SE
Wind: SE 6 mph , 9 km/h
Temperature: 21°C
Dew Point: 18°C
Humidity: 83%
Barometer: 1015 hPa
Clouds: Mostly cloudy
Visibility: 6 miles , 10 km
Cloud details: Few Clouds 610 m
Mostly cloudy 1524 m
Mostly cloudy 2134 m
2018/07/23 08:50 EGXE 230850Z 14005KT 9999 FEW020 BKN050 BKN070 21/18 Q1015 BLU NOSIG